Tolona, Missouri
Current Conditions -  °F | °C
As of 10:35 PM on Saturday 22 Nov 2014 (Local Time) from KEOK Reporting Station
Overcast Overcast  
Wind Chill: 54°   Ceiling: 1200
Heat Index: 54°   Visibility: 10mi
Dew Point: 50°   Wind: 16mph
Humidity: 88%   Direction: 190°S
Pressure: 29.77"   Gusts: NA
Location:  40.0949°N, 91.8336°W
Report Text: KEOK 230435Z AUTO 19014KT 10SM OVC012 12/10 A2977 RMK AO2
Loading
Personal Weather Stations






























Interactive Weather Map New forecast layout! Learn more

10-Day Weather Forecast

Advertisements
Track Severe Weather on mobile